sensor_id;sensor_type;location;lat;lon;timestamp;P1;durP1;ratioP1;P2;durP2;ratioP2
45684;SDS011;46836;48.388;16.210;2023-03-03T00:01:33;27.70;;;13.93;;
45684;SDS011;46836;48.388;16.210;2023-03-03T00:04:00;24.65;;;13.15;;
45684;SDS011;46836;48.388;16.210;2023-03-03T00:06:27;23.02;;;12.95;;
45684;SDS011;46836;48.388;16.210;2023-03-03T00:08:55;27.17;;;14.20;;
45684;SDS011;46836;48.388;16.210;2023-03-03T00:11:23;27.17;;;13.23;;
45684;SDS011;46836;48.388;16.210;2023-03-03T00:13:52;25.90;;;12.85;;
45684;SDS011;46836;48.388;16.210;2023-03-03T00:18:53;32.72;;;14.35;;
45684;SDS011;46836;48.388;16.210;2023-03-03T00:26:46;28.15;;;14.48;;
45684;SDS011;46836;48.388;16.210;2023-03-03T00:29:28;29.92;;;14.25;;
45684;SDS011;46836;48.388;16.210;2023-03-03T00:34:52;32.28;;;14.18;;
45684;SDS011;46836;48.388;16.210;2023-03-03T00:37:22;26.08;;;14.32;;
45684;SDS011;46836;48.388;16.210;2023-03-03T00:40:01;25.95;;;14.60;;
45684;SDS011;46836;48.388;16.210;2023-03-03T00:42:42;26.90;;;14.95;;
45684;SDS011;46836;48.388;16.210;2023-03-03T00:45:21;31.25;;;16.02;;
45684;SDS011;46836;48.388;16.210;2023-03-03T00:47:50;30.45;;;14.88;;
45684;SDS011;46836;48.388;16.210;2023-03-03T00:50:28;26.15;;;14.77;;
45684;SDS011;46836;48.388;16.210;2023-03-03T00:55:29;35.45;;;15.48;;
45684;SDS011;46836;48.388;16.210;2023-03-03T00:57:56;24.60;;;15.07;;
45684;SDS011;46836;48.388;16.210;2023-03-03T01:00:23;28.83;;;15.15;;
45684;SDS011;46836;48.388;16.210;2023-03-03T01:02:51;31.77;;;15.23;;
45684;SDS011;46836;48.388;16.210;2023-03-03T01:05:18;30.10;;;15.48;;
45684;SDS011;46836;48.388;16.210;2023-03-03T01:07:46;28.38;;;15.70;;
45684;SDS011;46836;48.388;16.210;2023-03-03T01:10:13;34.10;;;16.75;;
45684;SDS011;46836;48.388;16.210;2023-03-03T01:12:40;36.45;;;15.90;;
45684;SDS011;46836;48.388;16.210;2023-03-03T01:15:08;25.75;;;15.80;;
45684;SDS011;46836;48.388;16.210;2023-03-03T01:17:36;33.72;;;17.60;;
45684;SDS011;46836;48.388;16.210;2023-03-03T01:20:06;33.10;;;17.02;;
45684;SDS011;46836;48.388;16.210;2023-03-03T01:22:37;28.75;;;16.60;;
45684;SDS011;46836;48.388;16.210;2023-03-03T01:25:05;34.97;;;16.88;;
45684;SDS011;46836;48.388;16.210;2023-03-03T01:27:33;34.20;;;17.85;;
45684;SDS011;46836;48.388;16.210;2023-03-03T01:30:01;30.02;;;15.88;;
45684;SDS011;46836;48.388;16.210;2023-03-03T01:32:32;30.75;;;17.15;;
45684;SDS011;46836;48.388;16.210;2023-03-03T01:35:00;35.75;;;16.58;;
45684;SDS011;46836;48.388;16.210;2023-03-03T01:37:27;30.10;;;16.52;;
45684;SDS011;46836;48.388;16.210;2023-03-03T01:39:54;36.15;;;17.00;;
45684;SDS011;46836;48.388;16.210;2023-03-03T01:42:22;30.10;;;15.43;;
45684;SDS011;46836;48.388;16.210;2023-03-03T01:45:06;33.95;;;16.15;;
45684;SDS011;46836;48.388;16.210;2023-03-03T01:47:38;32.10;;;15.98;;
45684;SDS011;46836;48.388;16.210;2023-03-03T01:50:13;34.88;;;16.30;;
45684;SDS011;46836;48.388;16.210;2023-03-03T01:52:46;32.65;;;16.60;;
45684;SDS011;46836;48.388;16.210;2023-03-03T01:55:18;32.63;;;16.90;;
45684;SDS011;46836;48.388;16.210;2023-03-03T01:57:51;32.08;;;17.17;;
45684;SDS011;46836;48.388;16.210;2023-03-03T02:00:25;37.60;;;18.15;;
45684;SDS011;46836;48.388;16.210;2023-03-03T02:02:53;35.00;;;17.70;;
45684;SDS011;46836;48.388;16.210;2023-03-03T02:05:20;30.88;;;16.88;;
45684;SDS011;46836;48.388;16.210;2023-03-03T02:07:48;30.35;;;16.27;;
45684;SDS011;46836;48.388;16.210;2023-03-03T02:10:16;30.30;;;15.88;;
45684;SDS011;46836;48.388;16.210;2023-03-03T02:15:24;35.53;;;17.27;;
45684;SDS011;46836;48.388;16.210;2023-03-03T02:17:59;28.80;;;16.58;;
45684;SDS011;46836;48.388;16.210;2023-03-03T02:28:28;28.92;;;14.93;;
45684;SDS011;46836;48.388;16.210;2023-03-03T02:30:57;34.60;;;16.55;;
45684;SDS011;46836;48.388;16.210;2023-03-03T02:33:26;28.80;;;15.38;;
45684;SDS011;46836;48.388;16.210;2023-03-03T02:35:54;41.35;;;17.02;;
45684;SDS011;46836;48.388;16.210;2023-03-03T02:38:28;31.20;;;16.80;;
45684;SDS011;46836;48.388;16.210;2023-03-03T02:43:58;33.65;;;16.10;;
45684;SDS011;46836;48.388;16.210;2023-03-03T02:46:28;31.58;;;15.85;;
45684;SDS011;46836;48.388;16.210;2023-03-03T02:49:00;30.80;;;15.05;;
45684;SDS011;46836;48.388;16.210;2023-03-03T02:51:28;33.38;;;15.27;;
45684;SDS011;46836;48.388;16.210;2023-03-03T02:53:55;29.15;;;15.10;;
45684;SDS011;46836;48.388;16.210;2023-03-03T02:56:23;27.42;;;14.82;;
45684;SDS011;46836;48.388;16.210;2023-03-03T02:58:50;30.42;;;17.33;;
45684;SDS011;46836;48.388;16.210;2023-03-03T03:01:17;33.03;;;18.48;;
45684;SDS011;46836;48.388;16.210;2023-03-03T03:03:45;29.73;;;17.33;;
45684;SDS011;46836;48.388;16.210;2023-03-03T03:06:12;31.45;;;17.90;;
45684;SDS011;46836;48.388;16.210;2023-03-03T03:08:40;35.67;;;16.85;;
45684;SDS011;46836;48.388;16.210;2023-03-03T03:11:07;30.13;;;17.02;;
45684;SDS011;46836;48.388;16.210;2023-03-03T03:13:34;33.92;;;17.25;;
45684;SDS011;46836;48.388;16.210;2023-03-03T03:16:01;39.20;;;17.20;;
45684;SDS011;46836;48.388;16.210;2023-03-03T03:18:28;32.42;;;19.05;;
45684;SDS011;46836;48.388;16.210;2023-03-03T03:20:55;34.22;;;17.48;;
45684;SDS011;46836;48.388;16.210;2023-03-03T03:23:22;36.58;;;18.13;;
45684;SDS011;46836;48.388;16.210;2023-03-03T03:25:49;35.38;;;17.92;;
45684;SDS011;46836;48.388;16.210;2023-03-03T03:28:16;35.30;;;17.20;;
45684;SDS011;46836;48.388;16.210;2023-03-03T03:30:44;28.38;;;16.80;;
45684;SDS011;46836;48.388;16.210;2023-03-03T03:33:11;33.03;;;17.15;;
45684;SDS011;46836;48.388;16.210;2023-03-03T03:35:38;38.00;;;17.73;;
45684;SDS011;46836;48.388;16.210;2023-03-03T03:38:11;27.73;;;16.88;;
45684;SDS011;46836;48.388;16.210;2023-03-03T03:40:40;42.25;;;17.10;;
45684;SDS011;46836;48.388;16.210;2023-03-03T03:43:08;34.03;;;17.63;;
45684;SDS011;46836;48.388;16.210;2023-03-03T03:45:35;27.70;;;16.08;;
45684;SDS011;46836;48.388;16.210;2023-03-03T03:48:02;38.72;;;18.75;;
45684;SDS011;46836;48.388;16.210;2023-03-03T03:50:29;34.83;;;16.55;;
45684;SDS011;46836;48.388;16.210;2023-03-03T03:52:57;33.63;;;16.85;;
45684;SDS011;46836;48.388;16.210;2023-03-03T03:55:24;33.33;;;16.65;;
45684;SDS011;46836;48.388;16.210;2023-03-03T03:57:51;35.60;;;17.95;;
45684;SDS011;46836;48.388;16.210;2023-03-03T04:00:18;35.10;;;17.55;;
45684;SDS011;46836;48.388;16.210;2023-03-03T04:02:45;30.80;;;16.65;;
45684;SDS011;46836;48.388;16.210;2023-03-03T04:05:12;29.77;;;14.93;;
45684;SDS011;46836;48.388;16.210;2023-03-03T04:07:40;31.15;;;15.77;;
45684;SDS011;46836;48.388;16.210;2023-03-03T04:10:07;36.58;;;16.98;;
45684;SDS011;46836;48.388;16.210;2023-03-03T04:12:34;30.75;;;14.88;;
45684;SDS011;46836;48.388;16.210;2023-03-03T04:15:05;37.58;;;17.40;;
45684;SDS011;46836;48.388;16.210;2023-03-03T04:17:33;33.17;;;18.15;;
45684;SDS011;46836;48.388;16.210;2023-03-03T04:20:01;30.17;;;15.15;;
45684;SDS011;46836;48.388;16.210;2023-03-03T04:22:29;31.95;;;15.98;;
45684;SDS011;46836;48.388;16.210;2023-03-03T04:24:59;28.23;;;14.35;;
45684;SDS011;46836;48.388;16.210;2023-03-03T04:27:34;32.20;;;15.85;;
45684;SDS011;46836;48.388;16.210;2023-03-03T04:30:03;34.53;;;15.35;;
45684;SDS011;46836;48.388;16.210;2023-03-03T04:32:31;34.28;;;16.27;;
45684;SDS011;46836;48.388;16.210;2023-03-03T04:34:59;36.38;;;17.05;;
45684;SDS011;46836;48.388;16.210;2023-03-03T04:37:33;27.20;;;16.58;;
45684;SDS011;46836;48.388;16.210;2023-03-03T04:40:03;29.48;;;17.83;;
45684;SDS011;46836;48.388;16.210;2023-03-03T04:42:31;33.22;;;15.30;;
45684;SDS011;46836;48.388;16.210;2023-03-03T04:44:58;29.98;;;17.02;;
45684;SDS011;46836;48.388;16.210;2023-03-03T04:47:25;25.88;;;15.63;;
45684;SDS011;46836;48.388;16.210;2023-03-03T04:49:52;32.60;;;16.75;;
45684;SDS011;46836;48.388;16.210;2023-03-03T04:52:19;33.92;;;16.63;;
45684;SDS011;46836;48.388;16.210;2023-03-03T04:54:46;30.25;;;16.30;;
45684;SDS011;46836;48.388;16.210;2023-03-03T04:57:13;33.28;;;15.57;;
45684;SDS011;46836;48.388;16.210;2023-03-03T04:59:40;36.38;;;16.30;;
45684;SDS011;46836;48.388;16.210;2023-03-03T05:02:08;30.10;;;15.25;;
45684;SDS011;46836;48.388;16.210;2023-03-03T05:04:35;33.08;;;16.10;;
45684;SDS011;46836;48.388;16.210;2023-03-03T05:07:02;33.67;;;16.88;;
45684;SDS011;46836;48.388;16.210;2023-03-03T05:09:29;30.75;;;16.90;;
45684;SDS011;46836;48.388;16.210;2023-03-03T05:11:56;33.63;;;16.38;;
45684;SDS011;46836;48.388;16.210;2023-03-03T05:14:23;38.75;;;17.95;;
45684;SDS011;46836;48.388;16.210;2023-03-03T05:16:50;39.97;;;18.70;;
45684;SDS011;46836;48.388;16.210;2023-03-03T05:19:17;42.97;;;18.25;;
45684;SDS011;46836;48.388;16.210;2023-03-03T05:21:44;31.00;;;17.52;;
45684;SDS011;46836;48.388;16.210;2023-03-03T05:24:12;40.83;;;17.65;;
45684;SDS011;46836;48.388;16.210;2023-03-03T05:26:40;29.52;;;16.08;;
45684;SDS011;46836;48.388;16.210;2023-03-03T05:29:07;31.17;;;16.17;;
45684;SDS011;46836;48.388;16.210;2023-03-03T05:31:34;36.75;;;18.50;;
45684;SDS011;46836;48.388;16.210;2023-03-03T05:34:02;27.40;;;16.75;;
45684;SDS011;46836;48.388;16.210;2023-03-03T05:36:29;39.22;;;17.42;;
45684;SDS011;46836;48.388;16.210;2023-03-03T05:38:56;35.35;;;17.67;;
45684;SDS011;46836;48.388;16.210;2023-03-03T05:41:24;32.22;;;16.30;;
45684;SDS011;46836;48.388;16.210;2023-03-03T05:43:51;35.17;;;16.92;;
45684;SDS011;46836;48.388;16.210;2023-03-03T05:46:18;58.88;;;24.23;;
45684;SDS011;46836;48.388;16.210;2023-03-03T05:48:45;34.42;;;19.60;;
45684;SDS011;46836;48.388;16.210;2023-03-03T05:51:12;33.38;;;16.75;;
45684;SDS011;46836;48.388;16.210;2023-03-03T05:53:39;33.35;;;17.25;;
45684;SDS011;46836;48.388;16.210;2023-03-03T05:56:07;28.55;;;16.85;;
45684;SDS011;46836;48.388;16.210;2023-03-03T05:58:34;32.42;;;17.35;;
45684;SDS011;46836;48.388;16.210;2023-03-03T06:01:01;39.28;;;18.05;;
45684;SDS011;46836;48.388;16.210;2023-03-03T06:03:28;34.35;;;16.50;;
45684;SDS011;46836;48.388;16.210;2023-03-03T06:05:55;34.63;;;16.30;;
45684;SDS011;46836;48.388;16.210;2023-03-03T06:08:23;32.58;;;16.85;;
45684;SDS011;46836;48.388;16.210;2023-03-03T06:10:50;32.05;;;16.02;;
45684;SDS011;46836;48.388;16.210;2023-03-03T06:13:17;31.17;;;16.38;;
45684;SDS011;46836;48.388;16.210;2023-03-03T06:15:44;40.90;;;16.63;;
45684;SDS011;46836;48.388;16.210;2023-03-03T06:18:11;37.38;;;17.35;;
45684;SDS011;46836;48.388;16.210;2023-03-03T06:20:38;31.40;;;16.10;;
45684;SDS011;46836;48.388;16.210;2023-03-03T06:23:06;35.10;;;18.20;;
45684;SDS011;46836;48.388;16.210;2023-03-03T06:25:33;32.08;;;17.38;;
45684;SDS011;46836;48.388;16.210;2023-03-03T06:28:01;44.60;;;19.33;;
45684;SDS011;46836;48.388;16.210;2023-03-03T06:30:29;34.60;;;18.58;;
45684;SDS011;46836;48.388;16.210;2023-03-03T06:32:56;35.17;;;19.70;;
45684;SDS011;46836;48.388;16.210;2023-03-03T06:35:23;43.33;;;20.23;;
45684;SDS011;46836;48.388;16.210;2023-03-03T06:37:50;36.08;;;19.52;;
45684;SDS011;46836;48.388;16.210;2023-03-03T06:40:17;34.63;;;15.90;;
45684;SDS011;46836;48.388;16.210;2023-03-03T06:42:44;38.70;;;19.05;;
45684;SDS011;46836;48.388;16.210;2023-03-03T06:45:12;41.38;;;21.35;;
45684;SDS011;46836;48.388;16.210;2023-03-03T06:47:40;36.40;;;19.58;;
45684;SDS011;46836;48.388;16.210;2023-03-03T06:50:09;42.08;;;20.92;;
45684;SDS011;46836;48.388;16.210;2023-03-03T06:52:37;41.50;;;20.00;;
45684;SDS011;46836;48.388;16.210;2023-03-03T06:55:11;37.53;;;19.55;;
45684;SDS011;46836;48.388;16.210;2023-03-03T06:57:43;36.25;;;19.45;;
45684;SDS011;46836;48.388;16.210;2023-03-03T07:02:37;40.70;;;19.60;;
45684;SDS011;46836;48.388;16.210;2023-03-03T07:05:05;40.28;;;20.35;;
45684;SDS011;46836;48.388;16.210;2023-03-03T07:07:43;40.08;;;19.73;;
45684;SDS011;46836;48.388;16.210;2023-03-03T07:10:19;34.65;;;19.63;;
45684;SDS011;46836;48.388;16.210;2023-03-03T07:12:49;43.63;;;20.65;;
45684;SDS011;46836;48.388;16.210;2023-03-03T07:15:21;42.10;;;20.92;;
45684;SDS011;46836;48.388;16.210;2023-03-03T07:17:54;41.72;;;22.10;;
45684;SDS011;46836;48.388;16.210;2023-03-03T07:20:34;49.40;;;23.83;;
45684;SDS011;46836;48.388;16.210;2023-03-03T07:23:14;42.78;;;23.02;;
45684;SDS011;46836;48.388;16.210;2023-03-03T07:25:44;46.13;;;24.02;;
45684;SDS011;46836;48.388;16.210;2023-03-03T07:28:27;40.97;;;23.05;;
45684;SDS011;46836;48.388;16.210;2023-03-03T07:30:58;48.00;;;22.30;;
45684;SDS011;46836;48.388;16.210;2023-03-03T07:33:27;42.05;;;21.88;;
45684;SDS011;46836;48.388;16.210;2023-03-03T07:35:58;51.90;;;24.20;;
45684;SDS011;46836;48.388;16.210;2023-03-03T07:38:30;46.13;;;22.92;;
45684;SDS011;46836;48.388;16.210;2023-03-03T07:41:09;44.65;;;24.23;;
45684;SDS011;46836;48.388;16.210;2023-03-03T07:43:42;47.53;;;21.75;;
45684;SDS011;46836;48.388;16.210;2023-03-03T07:46:33;40.95;;;22.45;;
45684;SDS011;46836;48.388;16.210;2023-03-03T07:49:22;48.72;;;23.58;;
45684;SDS011;46836;48.388;16.210;2023-03-03T07:51:56;44.47;;;23.25;;
45684;SDS011;46836;48.388;16.210;2023-03-03T07:54:34;48.38;;;24.00;;
45684;SDS011;46836;48.388;16.210;2023-03-03T07:59:49;39.72;;;21.45;;
45684;SDS011;46836;48.388;16.210;2023-03-03T08:04:54;41.22;;;22.40;;
45684;SDS011;46836;48.388;16.210;2023-03-03T08:07:21;37.85;;;22.70;;
45684;SDS011;46836;48.388;16.210;2023-03-03T08:09:59;44.22;;;24.95;;
45684;SDS011;46836;48.388;16.210;2023-03-03T08:12:31;43.67;;;23.05;;
45684;SDS011;46836;48.388;16.210;2023-03-03T08:15:15;46.67;;;24.00;;
45684;SDS011;46836;48.388;16.210;2023-03-03T08:17:46;48.08;;;24.52;;
45684;SDS011;46836;48.388;16.210;2023-03-03T08:23:02;53.88;;;24.40;;
45684;SDS011;46836;48.388;16.210;2023-03-03T08:25:29;39.85;;;22.60;;
45684;SDS011;46836;48.388;16.210;2023-03-03T08:27:56;42.53;;;23.70;;
45684;SDS011;46836;48.388;16.210;2023-03-03T08:30:23;50.92;;;25.63;;
45684;SDS011;46836;48.388;16.210;2023-03-03T08:32:50;43.83;;;24.65;;
45684;SDS011;46836;48.388;16.210;2023-03-03T08:35:17;47.13;;;25.98;;
45684;SDS011;46836;48.388;16.210;2023-03-03T08:37:44;48.85;;;25.83;;
45684;SDS011;46836;48.388;16.210;2023-03-03T08:40:11;44.78;;;23.73;;
45684;SDS011;46836;48.388;16.210;2023-03-03T08:42:39;44.05;;;26.35;;
45684;SDS011;46836;48.388;16.210;2023-03-03T08:45:06;40.92;;;23.63;;
45684;SDS011;46836;48.388;16.210;2023-03-03T08:47:33;43.97;;;22.98;;
45684;SDS011;46836;48.388;16.210;2023-03-03T08:50:00;43.22;;;25.13;;
45684;SDS011;46836;48.388;16.210;2023-03-03T08:52:27;47.63;;;26.33;;
45684;SDS011;46836;48.388;16.210;2023-03-03T08:54:54;45.85;;;24.08;;
45684;SDS011;46836;48.388;16.210;2023-03-03T08:57:21;49.58;;;24.90;;
45684;SDS011;46836;48.388;16.210;2023-03-03T08:59:48;43.88;;;26.27;;
45684;SDS011;46836;48.388;16.210;2023-03-03T09:02:15;46.97;;;27.20;;
45684;SDS011;46836;48.388;16.210;2023-03-03T09:04:43;45.80;;;26.63;;
45684;SDS011;46836;48.388;16.210;2023-03-03T09:07:10;52.80;;;26.75;;
45684;SDS011;46836;48.388;16.210;2023-03-03T09:09:37;45.83;;;25.60;;
45684;SDS011;46836;48.388;16.210;2023-03-03T09:12:12;39.15;;;25.65;;
45684;SDS011;46836;48.388;16.210;2023-03-03T09:14:47;43.58;;;23.55;;
45684;SDS011;46836;48.388;16.210;2023-03-03T09:17:29;45.75;;;25.75;;
45684;SDS011;46836;48.388;16.210;2023-03-03T09:20:01;50.63;;;26.70;;
45684;SDS011;46836;48.388;16.210;2023-03-03T09:22:42;48.55;;;26.73;;
45684;SDS011;46836;48.388;16.210;2023-03-03T09:25:17;47.22;;;26.20;;
45684;SDS011;46836;48.388;16.210;2023-03-03T09:27:59;45.50;;;24.67;;
45684;SDS011;46836;48.388;16.210;2023-03-03T09:30:39;44.58;;;25.90;;
45684;SDS011;46836;48.388;16.210;2023-03-03T09:38:51;44.80;;;25.52;;
45684;SDS011;46836;48.388;16.210;2023-03-03T09:53:04;43.22;;;25.25;;
45684;SDS011;46836;48.388;16.210;2023-03-03T09:55:41;47.50;;;26.25;;
45684;SDS011;46836;48.388;16.210;2023-03-03T10:04:10;50.10;;;25.98;;
45684;SDS011;46836;48.388;16.210;2023-03-03T10:06:53;45.63;;;25.50;;
45684;SDS011;46836;48.388;16.210;2023-03-03T10:09:37;38.72;;;23.73;;
45684;SDS011;46836;48.388;16.210;2023-03-03T10:23:18;42.03;;;24.17;;
45684;SDS011;46836;48.388;16.210;2023-03-03T10:37:27;40.38;;;24.38;;
45684;SDS011;46836;48.388;16.210;2023-03-03T11:02:15;45.88;;;26.50;;
45684;SDS011;46836;48.388;16.210;2023-03-03T11:05:04;48.55;;;23.65;;
45684;SDS011;46836;48.388;16.210;2023-03-03T11:07:54;43.30;;;25.25;;
45684;SDS011;46836;48.388;16.210;2023-03-03T11:10:49;39.85;;;24.40;;
45684;SDS011;46836;48.388;16.210;2023-03-03T11:21:28;42.30;;;24.38;;
45684;SDS011;46836;48.388;16.210;2023-03-03T11:32:52;39.67;;;23.70;;
45684;SDS011;46836;48.388;16.210;2023-03-03T11:35:40;46.78;;;25.98;;
45684;SDS011;46836;48.388;16.210;2023-03-03T11:41:13;36.22;;;23.33;;
45684;SDS011;46836;48.388;16.210;2023-03-03T11:46:33;44.95;;;24.63;;
45684;SDS011;46836;48.388;16.210;2023-03-03T11:57:38;42.83;;;23.55;;
45684;SDS011;46836;48.388;16.210;2023-03-03T12:20:08;37.17;;;21.88;;
45684;SDS011;46836;48.388;16.210;2023-03-03T12:25:43;40.13;;;24.85;;
45684;SDS011;46836;48.388;16.210;2023-03-03T12:28:32;40.13;;;24.75;;
45684;SDS011;46836;48.388;16.210;2023-03-03T12:42:03;39.85;;;23.73;;
45684;SDS011;46836;48.388;16.210;2023-03-03T12:44:47;37.40;;;23.02;;
45684;SDS011;46836;48.388;16.210;2023-03-03T12:47:37;34.95;;;22.92;;
45684;SDS011;46836;48.388;16.210;2023-03-03T13:03:57;30.30;;;20.73;;
45684;SDS011;46836;48.388;16.210;2023-03-03T13:06:27;38.15;;;22.67;;
45684;SDS011;46836;48.388;16.210;2023-03-03T13:09:11;32.67;;;20.85;;
45684;SDS011;46836;48.388;16.210;2023-03-03T13:14:41;31.90;;;21.50;;
45684;SDS011;46836;48.388;16.210;2023-03-03T13:19:59;32.67;;;17.83;;
45684;SDS011;46836;48.388;16.210;2023-03-03T13:22:43;29.08;;;18.27;;
45684;SDS011;46836;48.388;16.210;2023-03-03T13:28:04;29.45;;;19.42;;
45684;SDS011;46836;48.388;16.210;2023-03-03T13:30:46;33.03;;;20.52;;
45684;SDS011;46836;48.388;16.210;2023-03-03T13:33:24;32.70;;;20.90;;
45684;SDS011;46836;48.388;16.210;2023-03-03T13:36:08;32.35;;;20.25;;
45684;SDS011;46836;48.388;16.210;2023-03-03T13:38:39;27.65;;;16.23;;
45684;SDS011;46836;48.388;16.210;2023-03-03T13:43:46;23.88;;;14.48;;
45684;SDS011;46836;48.388;16.210;2023-03-03T13:49:17;18.42;;;13.23;;
45684;SDS011;46836;48.388;16.210;2023-03-03T13:52:07;23.00;;;14.45;;
45684;SDS011;46836;48.388;16.210;2023-03-03T14:02:50;23.58;;;14.40;;
45684;SDS011;46836;48.388;16.210;2023-03-03T14:21:48;22.27;;;11.70;;
45684;SDS011;46836;48.388;16.210;2023-03-03T14:24:17;19.70;;;12.63;;
45684;SDS011;46836;48.388;16.210;2023-03-03T14:26:54;19.52;;;12.60;;
45684;SDS011;46836;48.388;16.210;2023-03-03T14:31:53;17.67;;;11.07;;
45684;SDS011;46836;48.388;16.210;2023-03-03T14:36:49;19.77;;;12.50;;
45684;SDS011;46836;48.388;16.210;2023-03-03T14:39:31;19.50;;;11.25;;
45684;SDS011;46836;48.388;16.210;2023-03-03T14:42:00;15.88;;;10.07;;
45684;SDS011;46836;48.388;16.210;2023-03-03T14:44:46;17.77;;;11.35;;
45684;SDS011;46836;48.388;16.210;2023-03-03T14:49:54;18.42;;;12.10;;
45684;SDS011;46836;48.388;16.210;2023-03-03T14:52:26;17.23;;;11.23;;
45684;SDS011;46836;48.388;16.210;2023-03-03T14:54:59;16.83;;;10.88;;
45684;SDS011;46836;48.388;16.210;2023-03-03T15:03:04;22.20;;;11.00;;
45684;SDS011;46836;48.388;16.210;2023-03-03T15:05:55;19.08;;;12.05;;
45684;SDS011;46836;48.388;16.210;2023-03-03T15:08:29;19.05;;;11.40;;
45684;SDS011;46836;48.388;16.210;2023-03-03T15:11:12;16.42;;;11.85;;
45684;SDS011;46836;48.388;16.210;2023-03-03T15:13:39;22.33;;;13.30;;
45684;SDS011;46836;48.388;16.210;2023-03-03T15:16:17;21.05;;;13.60;;
45684;SDS011;46836;48.388;16.210;2023-03-03T15:21:21;25.00;;;16.67;;
45684;SDS011;46836;48.388;16.210;2023-03-03T15:23:59;25.48;;;16.05;;
45684;SDS011;46836;48.388;16.210;2023-03-03T15:26:37;22.23;;;14.43;;
45684;SDS011;46836;48.388;16.210;2023-03-03T15:29:23;20.85;;;14.20;;
45684;SDS011;46836;48.388;16.210;2023-03-03T15:34:57;22.17;;;14.30;;
45684;SDS011;46836;48.388;16.210;2023-03-03T15:40:34;26.65;;;15.23;;
45684;SDS011;46836;48.388;16.210;2023-03-03T15:43:19;25.45;;;14.60;;
45684;SDS011;46836;48.388;16.210;2023-03-03T15:46:13;21.83;;;13.85;;
45684;SDS011;46836;48.388;16.210;2023-03-03T15:57:36;25.65;;;14.70;;
45684;SDS011;46836;48.388;16.210;2023-03-03T16:03:34;23.52;;;14.48;;
45684;SDS011;46836;48.388;16.210;2023-03-03T16:05:53;17.98;;;13.55;;
45684;SDS011;46836;48.388;16.210;2023-03-03T16:08:44;19.02;;;13.38;;
45684;SDS011;46836;48.388;16.210;2023-03-03T16:11:25;24.05;;;15.05;;
45684;SDS011;46836;48.388;16.210;2023-03-03T16:14:03;23.75;;;16.00;;
45684;SDS011;46836;48.388;16.210;2023-03-03T16:16:46;22.15;;;13.95;;
45684;SDS011;46836;48.388;16.210;2023-03-03T16:25:41;23.38;;;15.07;;
45684;SDS011;46836;48.388;16.210;2023-03-03T16:28:21;23.17;;;14.60;;
45684;SDS011;46836;48.388;16.210;2023-03-03T16:33:36;23.30;;;14.57;;
45684;SDS011;46836;48.388;16.210;2023-03-03T16:36:26;19.90;;;12.55;;
45684;SDS011;46836;48.388;16.210;2023-03-03T16:39:01;22.65;;;13.52;;
45684;SDS011;46836;48.388;16.210;2023-03-03T16:41:35;22.67;;;13.32;;
45684;SDS011;46836;48.388;16.210;2023-03-03T16:44:11;19.30;;;12.55;;
45684;SDS011;46836;48.388;16.210;2023-03-03T16:47:04;23.58;;;14.48;;
45684;SDS011;46836;48.388;16.210;2023-03-03T16:50:15;19.30;;;12.82;;
45684;SDS011;46836;48.388;16.210;2023-03-03T16:52:58;23.25;;;14.40;;
45684;SDS011;46836;48.388;16.210;2023-03-03T16:58:21;23.88;;;13.95;;
45684;SDS011;46836;48.388;16.210;2023-03-03T17:04:01;23.35;;;13.75;;
45684;SDS011;46836;48.388;16.210;2023-03-03T17:06:53;25.55;;;16.45;;
45684;SDS011;46836;48.388;16.210;2023-03-03T17:09:32;22.33;;;14.98;;
45684;SDS011;46836;48.388;16.210;2023-03-03T17:15:06;23.27;;;13.85;;
45684;SDS011;46836;48.388;16.210;2023-03-03T17:25:21;23.52;;;14.50;;
45684;SDS011;46836;48.388;16.210;2023-03-03T17:36:38;24.65;;;15.45;;
45684;SDS011;46836;48.388;16.210;2023-03-03T17:39:25;26.33;;;15.32;;
45684;SDS011;46836;48.388;16.210;2023-03-03T17:45:06;20.02;;;13.90;;
45684;SDS011;46836;48.388;16.210;2023-03-03T17:58:43;22.80;;;12.70;;
45684;SDS011;46836;48.388;16.210;2023-03-03T18:16:02;23.35;;;13.05;;
45684;SDS011;46836;48.388;16.210;2023-03-03T18:21:42;24.13;;;13.38;;
45684;SDS011;46836;48.388;16.210;2023-03-03T18:24:32;21.27;;;12.75;;
45684;SDS011;46836;48.388;16.210;2023-03-03T18:35:21;28.40;;;14.07;;
45684;SDS011;46836;48.388;16.210;2023-03-03T18:43:57;31.98;;;16.40;;
45684;SDS011;46836;48.388;16.210;2023-03-03T18:56:41;31.10;;;15.38;;
45684;SDS011;46836;48.388;16.210;2023-03-03T19:02:09;27.65;;;15.80;;
45684;SDS011;46836;48.388;16.210;2023-03-03T19:12:51;27.98;;;15.02;;
45684;SDS011;46836;48.388;16.210;2023-03-03T19:18:01;27.63;;;15.57;;
45684;SDS011;46836;48.388;16.210;2023-03-03T19:20:56;27.52;;;15.90;;
45684;SDS011;46836;48.388;16.210;2023-03-03T19:43:53;40.85;;;19.27;;
45684;SDS011;46836;48.388;16.210;2023-03-03T19:46:46;28.00;;;15.63;;
45684;SDS011;46836;48.388;16.210;2023-03-03T19:52:21;44.88;;;20.10;;
45684;SDS011;46836;48.388;16.210;2023-03-03T19:57:30;58.08;;;30.13;;
45684;SDS011;46836;48.388;16.210;2023-03-03T20:05:51;35.20;;;17.48;;
45684;SDS011;46836;48.388;16.210;2023-03-03T20:08:43;29.58;;;17.65;;
45684;SDS011;46836;48.388;16.210;2023-03-03T20:13:57;32.60;;;18.13;;
45684;SDS011;46836;48.388;16.210;2023-03-03T20:16:41;35.55;;;19.27;;
45684;SDS011;46836;48.388;16.210;2023-03-03T20:22:06;31.80;;;17.27;;
45684;SDS011;46836;48.388;16.210;2023-03-03T20:24:48;30.75;;;18.33;;
45684;SDS011;46836;48.388;16.210;2023-03-03T20:36:05;35.50;;;19.60;;
45684;SDS011;46836;48.388;16.210;2023-03-03T20:39:01;35.83;;;19.27;;
45684;SDS011;46836;48.388;16.210;2023-03-03T20:44:38;35.05;;;17.45;;
45684;SDS011;46836;48.388;16.210;2023-03-03T20:50:10;32.78;;;18.33;;
45684;SDS011;46836;48.388;16.210;2023-03-03T20:55:33;33.47;;;17.85;;
45684;SDS011;46836;48.388;16.210;2023-03-03T21:00:56;35.88;;;19.30;;
45684;SDS011;46836;48.388;16.210;2023-03-03T21:03:34;37.05;;;18.38;;
45684;SDS011;46836;48.388;16.210;2023-03-03T21:06:09;36.10;;;19.13;;
45684;SDS011;46836;48.388;16.210;2023-03-03T21:08:46;32.97;;;18.38;;
45684;SDS011;46836;48.388;16.210;2023-03-03T21:13:58;39.15;;;19.90;;
45684;SDS011;46836;48.388;16.210;2023-03-03T21:16:47;43.78;;;21.55;;
45684;SDS011;46836;48.388;16.210;2023-03-03T21:19:23;48.05;;;24.80;;
45684;SDS011;46836;48.388;16.210;2023-03-03T21:21:53;44.35;;;24.10;;
45684;SDS011;46836;48.388;16.210;2023-03-03T21:24:22;41.40;;;22.13;;
45684;SDS011;46836;48.388;16.210;2023-03-03T21:27:23;41.88;;;23.70;;
45684;SDS011;46836;48.388;16.210;2023-03-03T21:32:39;39.30;;;22.00;;
45684;SDS011;46836;48.388;16.210;2023-03-03T21:35:12;48.92;;;21.15;;
45684;SDS011;46836;48.388;16.210;2023-03-03T21:37:46;40.80;;;21.15;;
45684;SDS011;46836;48.388;16.210;2023-03-03T21:40:18;43.20;;;21.67;;
45684;SDS011;46836;48.388;16.210;2023-03-03T21:42:51;35.97;;;20.40;;
45684;SDS011;46836;48.388;16.210;2023-03-03T21:45:20;37.80;;;20.58;;